Skip to content.

Wairarapa Tararua

  

Featherston - FTS

Logged in to unit HSN11991 as: Guest
(Last data received Wed 21 Feb 2018 08:20:00 - 4 minutes ago)

All FWI Graphs Forecast Hourly FWI Daily FWI Download FWI Data

Hourly FWI Logs | Period From 08:20 20/02/2018 to 08:20 21/02/2018

Change the DoC% for the 24hr period starting 12:00pm 20/2/2018 to

If the date above is the current day, then all future logs will inherit this value until such time as it is changed again. If you wish to change historic values you can do so by going back to the day you want to alter (navigate via the graphs) and change the DoC% there (however this will only affect that day).

WindRainHourly FWIsDaily FWIsForestGrassScrub
DateTime (NZST)Temp (C)RH (%)Dir (deg)Speed (km/h)Hourly (mm)Daily (mm)FFMCISIHFWIFFMCDMCDCISIBUIFWIDSRROS (m/h)FFI (kW/m)FFDCDoC (%)ROS (m/h)GFI (kW/m)GFDCROS (m/h)SFI (kW/m)SFDC
21/02/2018 0700 19.8 62.3 255 32.8 0.0 55.3 1.5 0.9 13 2 L 70 38 66 M 253 2531 V
21/02/2018 0600 19.9 65.6 273 28.4 0.0 51.0 0.8 0.4 4 1 L 70 13 22 M 100 1000 H
21/02/2018 0500 20.0 70.0 273 25.6 0.0 46.7 0.4 0.2 1 0 L 70 4 7 L 36 364 M
21/02/2018 0400 20.0 72.0 277 24.8 0.0 42.6 0.2 0.1 0 0 L 70 1 2 L 13 133 M
21/02/2018 0300 20.1 70.4 261 21.6 0.2 38.5 0.1 0.0 0 0 L 70 0 0 L 3 32 M
21/02/2018 0200 20.1 80.7 263 28.4 0.0 35.8 0.1 0.0 0 0 L 70 0 0 L 2 23 M
21/02/2018 0100 20.2 76.4 291 28.1 0.0 32.0 0.0 0.0 0 0 L 70 0 0 L 1 6 L
21/02/2018 0000 20.3 74.1 265 36.0 0.0 27.5 0.0 0.0 0 0 L 70 0 0 L 0 2 L
20/02/2018 2300 20.3 73.1 283 43.6 0.0 22.2 0.0 0.0 0 0 L 70 0 0 L 0 0 L
20/02/2018 2200 20.3 74.8 292 26.6 1.2 16.4 0.0 0.0 0 0 L 70 0 0 L 0 0 L
20/02/2018 2100 20.3 77.1 307 29.9 0.2 14.9 0.0 0.0 0 0 L 70 0 0 L 0 0 L
20/02/2018 2000 20.3 72.6 318 19.1 0.0 10.7 0.0 0.0 0 0 L 70 0 0 L 0 0 L
20/02/2018 1900 20.3 81.3 292 6.1 0.0 6.1 0.0 0.0 0 0 L 70 0 0 L 0 0 L
20/02/2018 1800 20.2 97.0 282 3.6 0.0 3.6 0.0 0.0 0 0 L 70 0 0 L 0 0 L
20/02/2018 1700 20.1 94.6 145 4.3 0.0 3.1 0.0 0.0 0 0 L 70 0 0 L 0 0 L
20/02/2018 1600 20.1 93.9 198 8.3 0.0 2.3 0.0 0.0 0 0 L 70 0 0 L 0 0 L
20/02/2018 1500 20.0 96.9 190 6.1 0.0 1.1 0.0 0.0 0 0 L 70 0 0 L 0 0 L
20/02/2018 1400 19.8 97.0 200 7.2 0.2 0.6 0.0 0.0 0 0 L 70 0 0 L 0 0 L
20/02/2018 1300 19.8 97.3 196 3.2 0.0 0.5 0.0 0.0 0 0 L 70 0 0 L 0 0 L
20/02/2018 1200 19.7 99.5 273 1.4 0.8 29.0 0.1 0.0 0.0 11.9 5.2 96.6 0.0 9.2 0.0 0.0 0 0 L 70 0 0 L 0 0 L
20/02/2018 1100 19.7 99.2 315 2.2 1.6 0.1 0.0 0.0 0 0 L 70 0 0 L 0 0 L
20/02/2018 1000 19.7 99.8 24 2.9 1.0 0.0 0.0 0.0 0 0 L 70 0 0 L 0 0 L
20/02/2018 0900 19.8 99.6 56 7.6 6.2 0.1 0.0 0.0 0 0 L 70 0 0 L 0 0 L
20/02/2018 0800 20.0 99.5 214 5.8 7.2 0.9 0.0 0.0 0 0 L 70 0 0 L 0 0 L